Time;durP1;ratioP1;P1;durP2;ratioP2;P2;SDS_P1;SDS_P2;PMS_P1;PMS_P2;Temp;Humidity;BMP_temperature;BMP_pressure;BME280_temperature;BME280_humidity;BME280_pressure;Samples;Min_cycle;Max_cycle;Signal;HPM_P1;HPM_P2
2021/09/07 00:01:48;;;;;;;15.07;11.90;;;19.20;99.90;;;;;;4973297;28;20205;-84
2021/09/07 00:04:13;;;;;;;20.63;12.23;;;19.10;99.90;;;;;;4973073;28;20264;-85
2021/09/07 00:06:39;;;;;;;20.25;12.50;;;19.00;99.90;;;;;;4973348;28;20188;-85
2021/09/07 00:09:05;;;;;;;13.27;11.60;;;19.10;99.90;;;;;;4974138;28;20256;-84
2021/09/07 00:11:30;;;;;;;17.13;11.70;;;19.00;99.90;;;;;;4973127;28;20209;-84
2021/09/07 00:13:56;;;;;;;17.00;12.10;;;19.00;99.90;;;;;;4974056;28;20681;-83
2021/09/07 00:16:22;;;;;;;17.60;12.18;;;19.00;99.90;;;;;;4972839;28;20189;-84
2021/09/07 00:18:47;;;;;;;23.10;12.48;;;19.00;99.90;;;;;;4972698;28;20194;-84
2021/09/07 00:21:13;;;;;;;21.00;12.43;;;19.00;99.90;;;;;;4973251;28;20201;-85
2021/09/07 00:23:39;;;;;;;19.88;12.98;;;19.00;99.90;;;;;;4972725;28;20170;-85
2021/09/07 00:26:04;;;;;;;15.20;12.13;;;19.10;99.90;;;;;;4974408;28;20177;-84
2021/09/07 00:28:30;;;;;;;16.02;12.27;;;19.00;99.90;;;;;;4973013;28;20581;-83
2021/09/07 00:30:56;;;;;;;16.35;12.65;;;18.90;99.90;;;;;;4972783;28;20181;-86
2021/09/07 00:33:21;;;;;;;17.55;12.98;;;18.90;99.90;;;;;;4972935;28;20165;-86
2021/09/07 00:35:47;;;;;;;21.02;12.23;;;18.80;99.90;;;;;;4973945;28;20192;-85
2021/09/07 00:38:12;;;;;;;20.80;13.27;;;18.90;99.90;;;;;;4973810;28;20190;-85
2021/09/07 00:40:38;;;;;;;18.00;12.43;;;19.00;99.90;;;;;;4972952;28;20249;-85
2021/09/07 00:43:04;;;;;;;16.70;12.20;;;19.00;99.90;;;;;;4974381;28;20650;-84
2021/09/07 00:45:29;;;;;;;21.92;12.77;;;19.00;99.90;;;;;;4972867;28;20581;-86
2021/09/07 00:47:56;;;;;;;17.55;12.98;;;19.00;99.90;;;;;;4972595;28;20189;-83
2021/09/07 00:50:23;;;;;;;17.80;12.65;;;18.90;99.90;;;;;;4972627;28;20174;-85
2021/09/07 00:52:49;;;;;;;13.02;11.50;;;18.90;99.90;;;;;;4973969;28;20646;-86
2021/09/07 00:55:16;;;;;;;14.90;13.27;;;18.70;99.90;;;;;;4973337;28;20231;-84
2021/09/07 00:57:43;;;;;;;15.07;13.13;;;18.80;99.90;;;;;;4976759;28;20276;-84
2021/09/07 01:00:09;;;;;;;22.42;13.27;;;18.60;99.90;;;;;;4976354;28;20170;-84
2021/09/07 01:02:35;;;;;;;18.08;13.38;;;18.70;99.90;;;;;;4977919;28;20201;-83
2021/09/07 01:05:01;;;;;;;16.77;12.50;;;18.80;99.90;;;;;;4976765;28;20232;-85
2021/09/07 01:07:26;;;;;;;17.17;13.23;;;18.80;99.90;;;;;;4976222;28;20170;-84
2021/09/07 01:09:52;;;;;;;18.92;12.80;;;18.80;99.90;;;;;;4976378;28;20181;-86
2021/09/07 01:12:18;;;;;;;16.67;12.35;;;18.70;99.90;;;;;;4976524;28;20280;-86
2021/09/07 01:14:44;;;;;;;16.50;12.73;;;18.60;99.90;;;;;;4975529;28;20189;-86
2021/09/07 01:17:15;;;;;;;22.45;13.65;;;18.60;99.90;;;;;;4977551;28;20197;-84
2021/09/07 01:19:46;;;;;;;20.80;13.23;;;18.60;99.90;;;;;;4976484;28;20197;-85
2021/09/07 01:22:12;;;;;;;22.67;13.05;;;18.70;99.90;;;;;;4975964;28;20280;-85
2021/09/07 01:24:38;;;;;;;16.73;11.77;;;18.60;99.90;;;;;;4976314;28;20162;-85
2021/09/07 01:27:07;;;;;;;18.52;13.10;;;18.50;99.90;;;;;;4977367;28;20228;-84
2021/09/07 01:29:39;;;;;;;15.40;12.27;;;18.50;99.90;;;;;;4976550;28;20217;-86
2021/09/07 01:32:07;;;;;;;16.52;12.63;;;18.40;99.90;;;;;;4976062;28;20177;-86
2021/09/07 01:34:33;;;;;;;20.40;13.05;;;18.50;99.90;;;;;;4976121;28;20248;-85
2021/09/07 01:36:59;;;;;;;14.90;11.80;;;18.50;99.90;;;;;;4977451;28;20173;-86
2021/09/07 01:39:25;;;;;;;26.25;12.85;;;18.40;99.90;;;;;;4977435;28;20197;-86
2021/09/07 01:41:51;;;;;;;20.73;13.45;;;18.30;99.90;;;;;;4977081;28;20201;-85
2021/09/07 01:44:18;;;;;;;18.90;13.27;;;18.30;99.90;;;;;;4975821;28;20537;-86
2021/09/07 01:46:44;;;;;;;19.80;11.88;;;18.30;99.90;;;;;;4976070;28;20177;-85
2021/09/07 01:49:11;;;;;;;15.65;12.40;;;18.40;99.90;;;;;;4975822;28;20190;-85
2021/09/07 01:51:38;;;;;;;21.30;12.02;;;18.40;99.90;;;;;;4975903;28;20177;-85
2021/09/07 01:54:08;;;;;;;17.80;11.73;;;18.30;99.90;;;;;;4976793;28;20162;-85
2021/09/07 01:56:34;;;;;;;18.83;12.63;;;18.30;99.90;;;;;;4977037;28;20627;-85
2021/09/07 01:59:00;;;;;;;17.27;12.52;;;18.30;99.90;;;;;;4976635;28;20193;-83
2021/09/07 02:01:25;;;;;;;19.25;13.50;;;18.20;99.90;;;;;;4975459;28;20564;-85
2021/09/07 02:03:51;;;;;;;25.52;12.93;;;18.30;99.90;;;;;;4976792;28;20182;-86
2021/09/07 02:06:17;;;;;;;26.70;13.65;;;18.20;99.90;;;;;;4975030;28;20661;-86
2021/09/07 02:08:42;;;;;;;18.60;12.38;;;18.10;99.90;;;;;;4977020;28;20205;-86
2021/09/07 02:11:08;;;;;;;16.10;12.07;;;18.10;99.90;;;;;;4976770;28;20213;-85
2021/09/07 02:13:35;;;;;;;16.05;12.68;;;18.10;99.90;;;;;;4975602;28;20162;-85
2021/09/07 02:16:01;;;;;;;14.18;11.70;;;18.10;99.90;;;;;;4975303;28;20172;-85
2021/09/07 02:18:26;;;;;;;19.05;11.88;;;18.10;99.90;;;;;;4975445;28;20548;-85
2021/09/07 02:20:52;;;;;;;19.40;14.10;;;18.10;99.90;;;;;;4976478;28;20178;-86
2021/09/07 02:23:18;;;;;;;18.60;12.85;;;18.20;99.90;;;;;;4975233;28;20231;-84
2021/09/07 02:25:43;;;;;;;23.75;12.15;;;18.20;99.90;;;;;;4974869;28;20173;-84
2021/09/07 02:28:09;;;;;;;18.80;13.32;;;18.20;99.90;;;;;;4974453;28;20208;-85
2021/09/07 02:30:35;;;;;;;24.13;13.13;;;18.20;99.90;;;;;;4974552;28;20185;-85
2021/09/07 02:33:01;;;;;;;21.48;12.90;;;18.20;99.90;;;;;;4974495;28;20312;-84
2021/09/07 02:35:28;;;;;;;19.80;13.07;;;18.10;99.90;;;;;;4975842;28;20189;-84
2021/09/07 02:37:54;;;;;;;14.70;12.68;;;18.20;99.90;;;;;;4974670;28;20190;-85
2021/09/07 02:40:20;;;;;;;22.92;14.73;;;18.20;99.90;;;;;;4974765;28;20183;-85
2021/09/07 02:42:45;;;;;;;23.23;13.10;;;18.10;99.90;;;;;;4974590;28;20209;-85
2021/09/07 02:45:11;;;;;;;17.98;13.30;;;18.10;99.90;;;;;;4974638;28;20542;-85
2021/09/07 02:47:40;;;;;;;18.73;13.65;;;18.10;99.90;;;;;;4975823;28;20721;-85
2021/09/07 02:50:08;;;;;;;20.55;13.80;;;18.00;99.90;;;;;;4974684;28;20181;-85
2021/09/07 02:52:33;;;;;;;24.95;13.18;;;18.10;99.90;;;;;;4974318;28;20177;-84
2021/09/07 02:54:59;;;;;;;22.20;13.95;;;18.10;99.90;;;;;;4974226;28;20166;-86
2021/09/07 02:57:25;;;;;;;20.95;14.43;;;18.00;99.90;;;;;;4974601;28;20170;-83
2021/09/07 02:59:50;;;;;;;30.50;16.27;;;18.00;99.90;;;;;;4975469;28;20522;-84
2021/09/07 03:02:16;;;;;;;22.02;16.02;;;17.90;99.90;;;;;;4974419;28;20300;-84
2021/09/07 03:04:41;;;;;;;23.88;15.82;;;18.00;99.90;;;;;;4974345;28;20161;-85
2021/09/07 03:07:07;;;;;;;25.30;15.55;;;18.10;99.90;;;;;;4975077;28;20165;-83
2021/09/07 03:09:33;;;;;;;20.80;15.38;;;18.00;99.90;;;;;;4973723;28;20691;-84
2021/09/07 03:11:58;;;;;;;24.40;16.10;;;17.90;99.90;;;;;;4974373;28;20178;-85
2021/09/07 03:14:24;;;;;;;26.33;15.57;;;17.80;99.90;;;;;;4973869;28;20563;-84
2021/09/07 03:16:50;;;;;;;22.23;15.18;;;17.70;99.90;;;;;;4973931;28;20236;-84
2021/09/07 03:19:15;;;;;;;22.67;14.88;;;17.70;99.90;;;;;;4974095;28;20677;-84
2021/09/07 03:21:42;;;;;;;33.03;16.17;;;17.70;99.90;;;;;;4973811;28;20206;-84
2021/09/07 03:24:08;;;;;;;21.70;16.15;;;17.70;99.90;;;;;;4973954;28;20689;-83
2021/09/07 03:26:34;;;;;;;27.10;15.82;;;17.90;99.90;;;;;;4975275;28;20181;-83
2021/09/07 03:28:59;;;;;;;29.52;14.98;;;17.80;99.90;;;;;;4973496;28;20282;-83
2021/09/07 03:31:25;;;;;;;23.85;15.38;;;17.90;99.90;;;;;;4973362;28;20178;-85
2021/09/07 03:33:50;;;;;;;27.35;14.75;;;17.90;99.90;;;;;;4973599;28;20173;-84
2021/09/07 03:36:16;;;;;;;31.52;16.70;;;17.80;99.90;;;;;;4973374;28;20212;-85
2021/09/07 03:38:42;;;;;;;29.40;15.40;;;17.80;99.90;;;;;;4973351;28;20197;-83
2021/09/07 03:41:07;;;;;;;27.23;15.20;;;17.70;99.90;;;;;;4974417;28;20226;-85
2021/09/07 03:43:33;;;;;;;22.45;15.57;;;17.70;99.90;;;;;;4973710;28;20182;-84
2021/09/07 03:45:58;;;;;;;31.65;16.52;;;17.70;99.90;;;;;;4975733;28;20162;-84
2021/09/07 03:48:24;;;;;;;24.23;15.90;;;17.70;99.90;;;;;;4974311;28;20205;-83
2021/09/07 03:50:50;;;;;;;25.00;16.27;;;17.80;99.90;;;;;;4973965;28;20162;-84
2021/09/07 03:53:16;;;;;;;28.27;15.25;;;17.90;99.90;;;;;;4973753;28;20173;-82
2021/09/07 03:55:42;;;;;;;34.33;16.70;;;17.90;99.90;;;;;;4975184;28;20173;-85
2021/09/07 03:58:07;;;;;;;23.35;16.13;;;17.90;99.90;;;;;;4974609;28;20208;-83
2021/09/07 04:00:33;;;;;;;23.40;16.02;;;18.00;99.90;;;;;;4973829;28;20173;-83
2021/09/07 04:02:59;;;;;;;28.05;15.45;;;17.80;99.90;;;;;;4974679;28;20201;-83
2021/09/07 04:05:24;;;;;;;24.60;15.88;;;17.60;99.90;;;;;;4973543;28;20173;-84
2021/09/07 04:07:50;;;;;;;23.98;15.60;;;17.60;99.90;;;;;;4973728;28;20689;-84
2021/09/07 04:10:16;;;;;;;26.95;16.40;;;17.60;99.90;;;;;;4973622;28;20707;-83
2021/09/07 04:12:41;;;;;;;28.05;16.88;;;17.60;99.90;;;;;;4973330;28;20174;-85
2021/09/07 04:15:07;;;;;;;36.00;16.45;;;17.50;99.90;;;;;;4973609;28;20180;-85
2021/09/07 04:17:33;;;;;;;25.40;16.40;;;17.50;99.90;;;;;;4974753;28;20204;-84
2021/09/07 04:19:59;;;;;;;40.47;18.55;;;17.50;99.90;;;;;;4973826;28;20637;-84
2021/09/07 04:22:24;;;;;;;33.58;17.55;;;17.60;99.90;;;;;;4974112;28;20236;-84
2021/09/07 04:24:50;;;;;;;31.17;17.67;;;17.60;99.90;;;;;;4975817;28;20174;-84
2021/09/07 04:27:15;;;;;;;36.35;17.83;;;17.60;99.90;;;;;;4973394;28;20650;-83
2021/09/07 04:29:41;;;;;;;35.95;17.48;;;17.50;99.90;;;;;;4974874;28;20158;-83
2021/09/07 04:32:07;;;;;;;28.35;17.75;;;17.50;99.90;;;;;;4973877;28;20173;-84
2021/09/07 04:34:32;;;;;;;30.73;18.27;;;17.50;99.90;;;;;;4975000;28;20165;-82
2021/09/07 04:36:58;;;;;;;32.72;17.42;;;17.50;99.90;;;;;;4973158;28;20539;-85
2021/09/07 04:39:24;;;;;;;31.20;18.67;;;17.70;99.90;;;;;;4974282;28;20284;-84
2021/09/07 04:41:49;;;;;;;33.28;18.90;;;17.70;99.90;;;;;;4973404;28;20193;-84
2021/09/07 04:44:15;;;;;;;32.60;18.30;;;17.70;99.90;;;;;;4973612;28;20169;-84
2021/09/07 04:46:41;;;;;;;31.67;18.48;;;17.70;99.90;;;;;;4975145;28;20201;-85
2021/09/07 04:49:06;;;;;;;42.92;19.65;;;17.70;99.90;;;;;;4974376;28;20213;-84
2021/09/07 04:51:32;;;;;;;37.20;19.65;;;17.50;99.90;;;;;;4974248;28;20169;-84
2021/09/07 04:53:59;;;;;;;35.50;17.88;;;17.60;99.90;;;;;;4973500;28;20630;-86
2021/09/07 04:56:25;;;;;;;28.38;17.65;;;17.60;99.90;;;;;;4973705;28;20233;-84
2021/09/07 04:58:51;;;;;;;28.85;18.17;;;17.50;99.90;;;;;;4974175;28;20197;-84
2021/09/07 05:01:16;;;;;;;31.85;19.05;;;17.50;99.90;;;;;;4973740;28;20236;-84
2021/09/07 05:03:42;;;;;;;27.23;17.95;;;17.60;99.90;;;;;;4973661;28;20206;-85
2021/09/07 05:06:07;;;;;;;31.98;17.83;;;17.70;99.90;;;;;;4973240;28;20170;-83
2021/09/07 05:08:33;;;;;;;36.42;18.52;;;17.70;99.90;;;;;;4974651;28;20208;-84
2021/09/07 05:10:59;;;;;;;38.25;19.30;;;17.70;99.90;;;;;;4973401;28;20169;-82
2021/09/07 05:13:25;;;;;;;41.70;20.60;;;17.70;99.90;;;;;;4974844;28;20272;-83
2021/09/07 05:15:50;;;;;;;41.50;18.98;;;17.70;99.90;;;;;;4973538;28;20256;-83
2021/09/07 05:18:16;;;;;;;34.25;19.30;;;17.60;99.90;;;;;;4974422;28;20241;-83
2021/09/07 05:20:42;;;;;;;40.45;19.52;;;17.50;99.90;;;;;;4972829;28;20264;-84
2021/09/07 05:23:07;;;;;;;32.40;18.92;;;17.50;99.90;;;;;;4974294;28;20292;-84
2021/09/07 05:25:33;;;;;;;35.35;18.00;;;17.60;99.90;;;;;;4974417;28;20169;-83
2021/09/07 05:27:58;;;;;;;32.10;18.50;;;17.60;99.90;;;;;;4973109;28;20189;-84
2021/09/07 05:30:24;;;;;;;44.03;18.98;;;17.50;99.90;;;;;;4974555;28;20254;-85
2021/09/07 05:32:50;;;;;;;32.17;19.08;;;17.50;99.90;;;;;;4972942;28;20174;-84
2021/09/07 05:35:16;;;;;;;31.52;17.77;;;17.60;99.90;;;;;;4974765;28;20170;-84
2021/09/07 05:37:41;;;;;;;28.95;18.98;;;17.70;99.90;;;;;;4972732;28;20544;-84
2021/09/07 05:40:12;;;;;;;31.42;18.00;;;17.80;99.90;;;;;;4972953;28;20229;-83
2021/09/07 05:42:42;;;;;;;39.50;19.42;;;17.80;99.90;;;;;;4975831;28;20313;-84
2021/09/07 05:45:16;;;;;;;32.08;17.85;;;17.80;99.90;;;;;;4975303;28;20294;-84
2021/09/07 05:47:42;;;;;;;33.67;18.80;;;17.80;99.90;;;;;;4975039;28;20285;-84
2021/09/07 05:50:08;;;;;;;34.83;17.65;;;17.80;99.90;;;;;;4975458;28;20198;-85
2021/09/07 05:52:34;;;;;;;38.95;18.00;;;17.90;99.90;;;;;;4975297;28;20653;-85
2021/09/07 05:55:00;;;;;;;28.63;18.25;;;18.00;99.90;;;;;;4975199;28;20169;-85
2021/09/07 05:57:25;;;;;;;34.42;19.38;;;18.10;99.90;;;;;;4975280;28;20228;-86
2021/09/07 05:59:54;;;;;;;30.17;19.23;;;18.00;99.90;;;;;;4974892;28;20178;-85
2021/09/07 06:02:20;;;;;;;38.00;19.88;;;17.90;99.90;;;;;;4974942;28;20209;-90
2021/09/07 06:04:45;;;;;;;47.78;20.23;;;17.90;99.90;;;;;;4975393;28;20178;-88
2021/09/07 06:07:11;;;;;;;35.25;20.08;;;18.00;99.90;;;;;;4975128;28;20174;-86
2021/09/07 06:09:37;;;;;;;39.28;20.83;;;18.10;99.90;;;;;;4974902;28;20245;-84
2021/09/07 06:12:02;;;;;;;32.88;19.80;;;18.10;99.90;;;;;;4974967;28;20213;-85
2021/09/07 06:14:28;;;;;;;46.47;20.05;;;18.10;99.90;;;;;;4974898;28;20258;-83
2021/09/07 06:16:56;;;;;;;43.55;20.25;;;18.20;99.90;;;;;;4974773;28;20201;-82
2021/09/07 06:19:21;;;;;;;42.85;19.42;;;18.30;99.90;;;;;;4974658;28;20276;-84
2021/09/07 06:21:47;;;;;;;36.42;20.75;;;18.30;99.90;;;;;;4975979;28;20721;-84
2021/09/07 06:24:13;;;;;;;48.90;21.50;;;18.30;99.90;;;;;;4974656;28;20244;-85
2021/09/07 06:26:38;;;;;;;58.65;20.88;;;18.40;99.90;;;;;;4974830;28;20180;-84
2021/09/07 06:29:04;;;;;;;38.92;20.02;;;18.40;99.90;;;;;;4975551;28;20229;-84
2021/09/07 06:31:30;;;;;;;48.90;19.73;;;18.50;99.90;;;;;;4976496;28;20169;-85
2021/09/07 06:33:55;;;;;;;38.55;20.35;;;18.60;99.90;;;;;;4974844;28;20202;-84
2021/09/07 06:36:21;;;;;;;36.65;21.80;;;18.60;99.90;;;;;;4976205;28;20212;-86
2021/09/07 06:38:46;;;;;;;46.65;21.33;;;18.80;99.90;;;;;;4978650;28;20212;-82
2021/09/07 06:41:12;;;;;;;48.10;21.88;;;18.80;99.90;;;;;;4981386;28;20217;-83
2021/09/07 06:43:38;;;;;;;47.75;21.83;;;19.00;99.90;;;;;;4996103;28;20177;-83
2021/09/07 06:46:04;;;;;;;35.88;19.77;;;19.10;99.90;;;;;;4995640;28;20158;-84
2021/09/07 06:50:55;;;;;;;38.47;19.73;;;19.10;99.90;;;;;;4998176;28;20158;-86
2021/09/07 06:53:21;;;;;;;39.38;22.58;;;19.20;99.90;;;;;;4999514;28;20173;-85
2021/09/07 06:55:47;;;;;;;45.22;21.30;;;19.30;99.90;;;;;;4998773;28;20158;-83
2021/09/07 06:58:13;;;;;;;36.60;21.77;;;19.40;99.90;;;;;;4997908;28;20208;-87
2021/09/07 07:00:38;;;;;;;47.00;22.88;;;19.50;99.90;;;;;;4992825;28;20166;-88
2021/09/07 07:03:04;;;;;;;39.40;22.63;;;19.50;99.90;;;;;;4978550;28;20216;-89
2021/09/07 07:05:30;;;;;;;43.72;20.90;;;19.50;99.90;;;;;;4976668;28;20170;-89
2021/09/07 07:07:55;;;;;;;55.40;22.95;;;19.50;99.90;;;;;;4975111;28;20304;-89
2021/09/07 07:10:21;;;;;;;58.88;22.88;;;19.60;99.90;;;;;;4976824;28;20182;-89
2021/09/07 07:12:47;;;;;;;46.70;23.58;;;19.60;99.90;;;;;;4976045;28;20241;-88
2021/09/07 07:15:12;;;;;;;52.15;22.40;;;19.60;99.90;;;;;;4975181;28;20535;-87
2021/09/07 07:17:38;;;;;;;42.63;22.95;;;19.80;99.90;;;;;;4977161;28;20607;-88
2021/09/07 07:20:04;;;;;;;51.80;23.40;;;19.90;99.90;;;;;;4975256;28;20177;-90
2021/09/07 07:22:30;;;;;;;38.78;21.05;;;19.90;99.90;;;;;;4975001;28;20625;-86
2021/09/07 07:24:56;;;;;;;44.33;23.90;;;20.10;99.90;;;;;;4974916;28;20166;-87
2021/09/07 07:27:22;;;;;;;52.20;22.65;;;20.20;99.90;;;;;;4974648;28;20651;-88
2021/09/07 07:29:47;;;;;;;47.97;22.90;;;20.10;99.90;;;;;;4975117;28;20176;-92
2021/09/07 07:32:13;;;;;;;41.28;20.67;;;20.30;99.90;;;;;;4974751;28;20170;-86
2021/09/07 07:34:39;;;;;;;45.88;22.02;;;20.50;99.90;;;;;;4974168;28;20189;-86
2021/09/07 07:37:05;;;;;;;40.30;21.30;;;20.60;99.90;;;;;;4972207;28;20166;-85
2021/09/07 07:39:32;;;;;;;47.40;22.92;;;20.60;99.90;;;;;;4973323;28;20535;-86
2021/09/07 07:41:58;;;;;;;43.72;21.55;;;20.80;99.90;;;;;;4973608;28;20280;-86
2021/09/07 07:44:24;;;;;;;46.35;21.92;;;21.00;99.90;;;;;;4974466;28;20166;-84
2021/09/07 07:46:50;;;;;;;44.85;20.92;;;21.10;99.90;;;;;;4974076;28;20185;-86
2021/09/07 07:49:16;;;;;;;41.20;20.95;;;21.20;99.90;;;;;;4974647;28;20185;-86
2021/09/07 07:51:41;;;;;;;36.17;20.58;;;21.10;99.90;;;;;;4973848;28;20646;-83
2021/09/07 07:54:09;;;;;;;32.95;20.02;;;21.20;99.90;;;;;;4974362;28;20308;-86
2021/09/07 07:56:36;;;;;;;41.67;19.02;;;21.20;99.90;;;;;;4973322;28;20220;-84
2021/09/07 07:59:02;;;;;;;38.90;20.42;;;21.50;99.90;;;;;;4974548;28;20558;-86
2021/09/07 08:01:28;;;;;;;27.25;18.13;;;21.50;99.90;;;;;;4973552;28;20201;-86
2021/09/07 08:03:53;;;;;;;29.75;19.08;;;21.70;99.90;;;;;;4972952;28;20178;-85
2021/09/07 08:06:19;;;;;;;42.10;20.60;;;21.80;99.90;;;;;;4974547;28;20166;-86
2021/09/07 08:08:45;;;;;;;49.88;19.80;;;21.70;99.90;;;;;;4975209;28;20232;-86
2021/09/07 08:11:10;;;;;;;31.80;18.58;;;21.80;99.90;;;;;;4974181;28;20178;-83
2021/09/07 08:13:36;;;;;;;37.70;19.02;;;22.00;99.90;;;;;;4974151;28;20174;-82
2021/09/07 08:16:02;;;;;;;30.65;17.83;;;22.20;99.90;;;;;;4974176;28;20229;-86
2021/09/07 08:18:28;;;;;;;36.45;19.33;;;22.30;99.90;;;;;;4973895;28;20198;-86
2021/09/07 08:20:53;;;;;;;43.88;17.33;;;22.50;99.90;;;;;;4974246;28;20630;-85
2021/09/07 08:23:19;;;;;;;29.15;19.60;;;22.60;99.90;;;;;;4974368;28;20288;-86
2021/09/07 08:25:45;;;;;;;42.30;19.23;;;22.50;99.90;;;;;;4972878;28;20586;-86
2021/09/07 08:28:12;;;;;;;28.02;15.85;;;22.60;99.90;;;;;;4972440;28;20233;-85
2021/09/07 08:30:37;;;;;;;31.20;16.65;;;22.70;99.90;;;;;;4974241;28;20173;-82
2021/09/07 08:33:03;;;;;;;37.13;17.20;;;23.00;99.90;;;;;;4974073;28;20177;-85
2021/09/07 08:35:29;;;;;;;38.88;16.02;;;23.20;99.90;;;;;;4974682;28;20693;-88
2021/09/07 08:37:55;;;;;;;36.25;17.48;;;23.40;99.90;;;;;;4975500;28;20186;-88
2021/09/07 08:40:20;;;;;;;33.00;15.70;;;23.40;99.90;;;;;;4975207;28;20259;-85
2021/09/07 08:42:46;;;;;;;28.20;15.75;;;23.30;99.90;;;;;;4975147;28;20661;-87
2021/09/07 08:45:13;;;;;;;28.58;15.15;;;23.20;99.90;;;;;;4974977;28;20166;-86
2021/09/07 08:47:39;;;;;;;25.67;15.70;;;23.30;99.90;;;;;;4975070;28;20225;-87
2021/09/07 08:50:06;;;;;;;27.08;15.05;;;23.50;99.90;;;;;;4974269;28;20630;-85
2021/09/07 08:52:31;;;;;;;29.60;16.15;;;23.40;99.90;;;;;;4974288;28;20220;-87
2021/09/07 08:54:57;;;;;;;33.60;15.88;;;23.50;99.90;;;;;;4975647;28;20170;-88
2021/09/07 08:57:23;;;;;;;27.88;14.52;;;23.40;99.90;;;;;;4974100;28;20178;-87
2021/09/07 09:00:00;;;;;;;22.20;14.05;;;23.50;99.90;;;;;;4975397;28;20630;-89
2021/09/07 09:02:27;;;;;;;26.17;14.52;;;23.70;99.90;;;;;;4975974;28;20216;-86
2021/09/07 09:04:58;;;;;;;19.80;13.52;;;23.70;99.90;;;;;;4975151;28;20166;-88
2021/09/07 09:07:28;;;;;;;27.90;13.13;;;23.80;99.90;;;;;;4973239;28;20178;-87
2021/09/07 09:09:55;;;;;;;26.58;11.57;;;23.80;99.90;;;;;;4974181;28;20185;-84
2021/09/07 09:12:39;;;;;;;20.75;13.25;;;23.90;99.90;;;;;;4973025;28;20173;-82
2021/09/07 09:15:22;;;;;;;20.42;12.02;;;24.20;99.90;;;;;;4972559;28;20177;-82
2021/09/07 09:17:52;;;;;;;19.33;11.90;;;24.40;99.90;;;;;;4976894;28;20198;-84
2021/09/07 09:20:20;;;;;;;17.73;12.60;;;24.50;99.90;;;;;;4977018;28;20265;-82
2021/09/07 09:22:56;;;;;;;19.05;11.55;;;24.60;99.90;;;;;;4976807;28;20563;-82
2021/09/07 09:25:22;;;;;;;14.85;10.98;;;24.60;99.90;;;;;;4977004;28;20200;-83
2021/09/07 09:27:54;;;;;;;14.75;10.98;;;24.70;99.90;;;;;;4975511;28;20193;-83
2021/09/07 09:30:31;;;;;;;15.43;11.10;;;24.80;99.90;;;;;;4975290;28;20178;-82
2021/09/07 09:33:00;;;;;;;16.67;9.25;;;24.70;99.90;;;;;;4979482;28;20785;-82
2021/09/07 09:35:26;;;;;;;15.52;10.88;;;24.70;99.90;;;;;;4977374;28;20249;-83
2021/09/07 09:38:01;;;;;;;21.30;10.20;;;24.80;99.90;;;;;;4974953;28;20194;-82
2021/09/07 09:40:28;;;;;;;14.25;10.02;;;24.80;99.90;;;;;;4975343;28;20912;-83
2021/09/07 09:42:56;;;;;;;16.02;9.57;;;24.90;99.90;;;;;;4976088;28;20204;-83
2021/09/07 09:45:30;;;;;;;11.82;9.48;;;25.00;99.90;;;;;;4975069;28;20170;-83
2021/09/07 09:47:56;;;;;;;15.88;9.73;;;25.20;99.90;;;;;;4975394;28;20236;-84
2021/09/07 09:50:25;;;;;;;14.23;9.60;;;25.30;99.90;;;;;;4976688;28;20162;-83
2021/09/07 09:52:52;;;;;;;26.55;10.65;;;25.40;99.90;;;;;;4975996;28;20548;-82
2021/09/07 09:55:18;;;;;;;13.55;10.05;;;25.30;99.90;;;;;;4975965;28;20249;-82
2021/09/07 09:57:44;;;;;;;15.55;10.05;;;25.40;99.90;;;;;;4976493;28;20202;-83
2021/09/07 10:00:15;;;;;;;15.60;10.02;;;25.40;99.90;;;;;;4975223;28;20558;-84
2021/09/07 10:02:42;;;;;;;19.35;9.45;;;25.40;99.90;;;;;;4975615;28;20205;-86
2021/09/07 10:05:10;;;;;;;18.33;9.32;;;25.40;99.90;;;;;;4976013;28;20180;-83
2021/09/07 10:07:36;;;;;;;11.02;9.25;;;25.40;99.90;;;;;;4975101;28;20190;-84
2021/09/07 10:10:03;;;;;;;19.00;9.93;;;25.30;99.90;;;;;;4974864;28;20566;-84
2021/09/07 10:12:45;;;;;;;15.10;9.35;;;25.30;99.90;;;;;;4974896;28;20232;-84
2021/09/07 10:17:54;;;;;;;16.35;10.40;;;25.50;99.90;;;;;;4976184;28;20202;-84
2021/09/07 10:20:52;;;;;;;12.82;10.15;;;25.60;99.90;;;;;;4974809;28;20218;-84
2021/09/07 10:26:16;;;;;;;12.77;9.43;;;25.60;99.90;;;;;;4975670;28;20221;-84
2021/09/07 10:28:55;;;;;;;12.60;9.25;;;25.70;99.90;;;;;;4973940;28;20272;-85
2021/09/07 10:31:24;;;;;;;14.38;9.90;;;25.70;99.90;;;;;;4974705;28;20165;-86
2021/09/07 10:33:56;;;;;;;10.10;8.02;;;25.90;99.90;;;;;;4974749;28;20184;-85
2021/09/07 10:36:22;;;;;;;9.10;7.97;;;25.80;99.90;;;;;;4974870;28;20229;-84
2021/09/07 10:38:56;;;;;;;11.02;9.10;;;26.00;99.90;;;;;;4974447;28;20309;-85
2021/09/07 10:41:34;;;;;;;11.38;8.43;;;25.90;99.90;;;;;;4974169;28;20169;-85
2021/09/07 10:44:20;;;;;;;9.23;7.25;;;26.00;99.90;;;;;;4973922;28;20174;-86
2021/09/07 10:46:48;;;;;;;20.90;8.65;;;25.90;99.90;;;;;;4975636;28;20185;-84
2021/09/07 10:49:26;;;;;;;14.90;9.68;;;26.00;99.90;;;;;;4975509;28;20190;-82
2021/09/07 10:52:10;;;;;;;16.67;8.02;;;26.00;99.90;;;;;;4975120;28;20181;-83
2021/09/07 10:54:51;;;;;;;18.38;8.55;;;26.10;99.90;;;;;;4974277;28;20623;-84
2021/09/07 10:57:35;;;;;;;11.63;8.60;;;26.00;99.90;;;;;;4974274;28;20173;-84
2021/09/07 11:00:02;;;;;;;12.48;8.13;;;25.90;99.90;;;;;;4973927;28;20181;-85
2021/09/07 11:02:41;;;;;;;8.02;7.18;;;25.90;99.90;;;;;;4973967;28;20241;-85
2021/09/07 11:05:10;;;;;;;18.70;8.05;;;26.00;99.90;;;;;;4974476;28;20602;-85
2021/09/07 11:07:39;;;;;;;11.45;8.45;;;26.00;99.90;;;;;;4973612;28;20189;-84
2021/09/07 11:10:24;;;;;;;11.25;8.50;;;26.10;99.90;;;;;;4974008;28;20197;-85
2021/09/07 11:12:52;;;;;;;11.23;7.65;;;26.10;99.90;;;;;;4975374;28;20209;-85
2021/09/07 11:15:23;;;;;;;10.02;7.50;;;26.10;99.90;;;;;;4974570;28;20200;-85
2021/09/07 11:17:56;;;;;;;10.25;7.28;;;26.10;99.90;;;;;;4973757;28;20221;-85
2021/09/07 11:20:30;;;;;;;7.47;5.85;;;26.00;99.90;;;;;;4975082;28;20186;-85
2021/09/07 11:22:57;;;;;;;7.72;6.78;;;25.90;99.90;;;;;;4975014;28;20600;-85
2021/09/07 11:25:23;;;;;;;10.27;6.05;;;26.10;99.90;;;;;;4974514;28;20165;-84
2021/09/07 11:27:49;;;;;;;10.98;6.00;;;26.00;99.90;;;;;;4973808;28;20285;-84
2021/09/07 11:30:31;;;;;;;14.27;6.25;;;26.00;99.90;;;;;;4973637;28;20204;-84
2021/09/07 11:33:05;;;;;;;8.32;6.72;;;26.00;99.90;;;;;;4976058;28;20194;-84
2021/09/07 11:35:53;;;;;;;8.02;7.22;;;26.00;99.90;;;;;;4974627;28;20195;-86
2021/09/07 11:38:27;;;;;;;9.45;5.97;;;26.10;99.90;;;;;;4974518;28;20212;-84
2021/09/07 11:41:04;;;;;;;7.85;5.85;;;26.30;99.90;;;;;;4958770;28;20173;-84
2021/09/07 11:43:30;;;;;;;6.15;5.45;;;26.40;99.90;;;;;;4974308;28;20300;-84
2021/09/07 11:46:18;;;;;;;6.63;5.68;;;26.50;99.90;;;;;;4974427;28;20646;-85
2021/09/07 11:49:03;;;;;;;10.15;6.28;;;26.70;99.90;;;;;;4973714;28;20515;-85
2021/09/07 11:51:30;;;;;;;25.55;7.50;;;26.70;99.90;;;;;;4975316;28;20217;-84
2021/09/07 11:53:58;;;;;;;10.13;6.15;;;26.80;99.90;;;;;;4975244;28;20162;-85
2021/09/07 11:56:27;;;;;;;15.50;6.65;;;26.90;99.90;;;;;;4975146;28;20252;-86
2021/09/07 11:59:11;;;;;;;17.90;7.60;;;26.80;99.90;;;;;;4975555;28;20178;-85
2021/09/07 12:01:44;;;;;;;9.32;6.75;;;26.80;99.90;;;;;;4975441;28;20193;-85
2021/09/07 12:04:14;;;;;;;14.98;7.28;;;26.90;99.90;;;;;;4973896;28;20189;-84
2021/09/07 12:06:53;;;;;;;11.23;6.63;;;26.70;99.90;;;;;;4973154;28;20173;-85
2021/09/07 12:09:29;;;;;;;8.82;6.05;;;26.80;99.90;;;;;;4974680;28;20197;-85
2021/09/07 12:12:05;;;;;;;11.27;6.32;;;26.60;99.90;;;;;;4972975;28;20216;-86
2021/09/07 12:14:38;;;;;;;8.38;5.85;;;26.70;99.90;;;;;;4973818;28;20174;-86
2021/09/07 12:17:12;;;;;;;10.35;5.50;;;26.80;99.90;;;;;;4973960;28;20220;-85
2021/09/07 12:19:41;;;;;;;5.68;5.18;;;26.70;99.90;;;;;;4972842;28;20213;-84
2021/09/07 12:22:10;;;;;;;6.03;4.72;;;26.60;99.90;;;;;;4972754;28;20232;-85
2021/09/07 12:24:37;;;;;;;5.15;4.63;;;26.50;99.90;;;;;;4972434;28;20177;-85
2021/09/07 12:27:23;;;;;;;6.15;5.13;;;26.50;99.90;;;;;;4973514;28;20235;-85
2021/09/07 12:30:30;;;;;;;9.80;5.60;;;26.60;99.90;;;;;;4973468;28;20166;-85
2021/09/07 12:32:57;;;;;;;6.70;4.90;;;26.80;99.90;;;;;;4973802;28;20173;-86
2021/09/07 12:35:42;;;;;;;6.35;4.70;;;26.90;99.90;;;;;;4973463;28;20169;-85
2021/09/07 12:38:13;;;;;;;9.98;4.28;;;26.90;99.90;;;;;;4973518;28;20284;-86
2021/09/07 12:40:49;;;;;;;6.20;4.35;;;26.80;99.90;;;;;;4974809;28;20182;-84
2021/09/07 12:43:26;;;;;;;5.95;3.50;;;26.90;99.90;;;;;;4974105;28;20213;-84